createdAt,value
2018-07-01T00:25:41.184Z,17.23
2018-07-01T00:28:10.147Z,17.14
2018-07-01T00:30:38.943Z,17.04
2018-07-01T00:33:08.171Z,16.92
2018-07-01T00:35:37.105Z,16.92
2018-07-01T00:38:05.981Z,16.95
2018-07-01T00:40:35.255Z,16.94
2018-07-01T00:43:04.023Z,16.90
2018-07-01T00:45:32.800Z,16.82
2018-07-01T00:48:01.552Z,16.78
2018-07-01T00:50:30.770Z,16.74
2018-07-01T00:52:59.653Z,16.75
2018-07-01T00:55:28.686Z,16.74
2018-07-01T00:57:58.046Z,16.72
2018-07-01T01:00:33.021Z,16.66
2018-07-01T01:03:03.409Z,16.59
2018-07-01T01:05:35.437Z,16.56
2018-07-01T01:08:04.417Z,16.55
2018-07-01T01:10:33.606Z,16.50
2018-07-01T01:13:02.469Z,16.45
2018-07-01T01:15:31.626Z,16.37
2018-07-01T01:18:00.571Z,16.31
2018-07-01T01:20:29.422Z,16.31
2018-07-01T01:22:58.591Z,16.33
2018-07-01T01:25:27.440Z,16.25
2018-07-01T01:27:56.658Z,16.23
2018-07-01T01:30:26.157Z,16.25
2018-07-01T01:32:55.145Z,16.20
2018-07-01T01:35:24.214Z,16.15
2018-07-01T01:37:53.093Z,16.13
2018-07-01T01:46:25.550Z,16.10
2018-07-01T01:49:02.473Z,16.00
2018-07-01T01:51:36.609Z,16.04
2018-07-01T01:54:16.380Z,16.01
2018-07-01T01:57:56.279Z,16.00
2018-07-01T02:00:29.534Z,15.93
2018-07-01T02:03:17.495Z,15.82
2018-07-01T02:05:57.297Z,15.79
2018-07-01T02:08:43.927Z,15.73
2018-07-01T02:11:13.383Z,15.70
2018-07-01T02:13:45.257Z,15.65
2018-07-01T02:16:18.335Z,15.60
2018-07-01T02:18:47.138Z,15.58
2018-07-01T02:21:16.000Z,15.53
2018-07-01T02:23:47.720Z,15.52
2018-07-01T02:26:16.588Z,15.51
2018-07-01T02:28:45.347Z,15.46
2018-07-01T02:31:14.671Z,15.43
2018-07-01T02:33:43.510Z,15.38
2018-07-01T02:36:12.525Z,15.35
2018-07-01T02:38:41.618Z,15.32
2018-07-01T02:41:10.803Z,15.25
2018-07-01T02:43:39.870Z,15.23
2018-07-01T02:46:08.683Z,15.17
2018-07-01T02:48:37.375Z,15.19
2018-07-01T02:51:06.271Z,15.07
2018-07-01T02:53:35.337Z,15.03
2018-07-01T02:56:04.472Z,15.04
2018-07-01T02:58:33.256Z,15.07
2018-07-01T03:01:02.117Z,15.02
2018-07-01T03:03:30.948Z,15.00
2018-07-01T03:05:59.669Z,14.92
2018-07-01T03:08:28.996Z,14.92
2018-07-01T03:10:57.894Z,14.93
2018-07-01T03:13:26.971Z,14.91
2018-07-01T03:15:55.884Z,14.97
2018-07-01T03:18:24.868Z,14.93
2018-07-01T03:20:53.893Z,14.88
2018-07-01T03:23:23.085Z,14.88
2018-07-01T03:25:51.917Z,14.88
2018-07-01T03:28:20.846Z,14.91
2018-07-01T03:30:50.609Z,14.96
2018-07-01T03:33:19.539Z,14.91
2018-07-01T03:35:48.300Z,14.90
2018-07-01T03:38:17.660Z,14.92
2018-07-01T03:40:46.730Z,14.95
2018-07-01T03:43:15.609Z,14.94
2018-07-01T03:45:45.794Z,14.90
2018-07-01T03:48:14.659Z,14.93
2018-07-01T03:50:43.554Z,14.91
2018-07-01T03:53:12.717Z,14.93
2018-07-01T03:55:41.672Z,14.90
2018-07-01T03:58:10.598Z,14.88
2018-07-01T04:00:39.420Z,14.85
2018-07-01T04:03:08.221Z,14.88
2018-07-01T04:05:36.948Z,14.89
2018-07-01T04:08:06.020Z,14.88
2018-07-01T04:10:35.007Z,14.83
2018-07-01T04:13:03.822Z,14.85
2018-07-01T04:15:32.877Z,14.86
2018-07-01T04:18:01.769Z,14.88
2018-07-01T04:20:31.074Z,14.88
2018-07-01T04:23:00.055Z,14.86
2018-07-01T04:25:28.786Z,14.91
2018-07-01T04:27:57.577Z,14.91
2018-07-01T04:30:26.661Z,15.00
2018-07-01T04:32:55.455Z,15.06
2018-07-01T04:35:24.534Z,15.05
2018-07-01T04:37:53.442Z,15.06
2018-07-01T04:40:22.392Z,15.10
2018-07-01T04:42:51.196Z,15.01
2018-07-01T04:45:20.382Z,15.06
2018-07-01T04:47:49.428Z,15.09
2018-07-01T04:50:18.134Z,15.11
2018-07-01T04:52:46.910Z,15.12
2018-07-01T04:55:15.747Z,15.15
2018-07-01T04:57:44.498Z,15.21
2018-07-01T05:00:13.238Z,15.18
2018-07-01T05:02:42.030Z,15.09
2018-07-01T05:05:10.950Z,15.15
2018-07-01T05:07:39.685Z,15.19
2018-07-01T05:10:08.490Z,15.23
2018-07-01T05:12:37.282Z,15.36
2018-07-01T05:15:06.654Z,15.41
2018-07-01T05:17:35.484Z,15.51
2018-07-01T05:20:04.509Z,15.58
2018-07-01T05:22:33.298Z,15.58
2018-07-01T05:25:02.181Z,15.60
2018-07-01T05:27:31.777Z,15.63
2018-07-01T05:30:00.831Z,15.76
2018-07-01T05:32:29.734Z,15.78
2018-07-01T05:34:58.639Z,15.96
2018-07-01T05:37:27.543Z,15.91
2018-07-01T05:39:56.295Z,16.01
2018-07-01T05:42:25.525Z,16.07
2018-07-01T05:44:54.682Z,16.05
2018-07-01T05:47:23.570Z,16.22
2018-07-01T05:49:52.408Z,16.31
2018-07-01T05:52:21.175Z,16.33
2018-07-01T05:54:49.867Z,16.40
2018-07-01T05:57:18.612Z,16.46
2018-07-01T05:59:47.612Z,16.48
2018-07-01T06:02:16.520Z,16.61
2018-07-01T06:04:45.517Z,16.67
2018-07-01T06:07:14.494Z,16.66
2018-07-01T06:09:43.261Z,16.85
2018-07-01T06:12:12.648Z,16.86
2018-07-01T06:14:41.608Z,16.92
2018-07-01T06:17:10.363Z,17.05
2018-07-01T06:19:39.233Z,17.04
2018-07-01T06:22:08.362Z,17.16
2018-07-01T06:24:37.222Z,17.29
2018-07-01T06:27:06.140Z,17.35
2018-07-01T06:29:34.951Z,17.46
2018-07-01T06:32:03.842Z,17.55
2018-07-01T06:34:32.594Z,17.66
2018-07-01T06:37:01.422Z,17.74
2018-07-01T06:39:30.319Z,17.83
2018-07-01T06:41:59.130Z,17.91
2018-07-01T06:44:28.306Z,17.90
2018-07-01T06:46:57.146Z,17.99
2018-07-01T06:49:25.953Z,18.19
2018-07-01T06:51:54.960Z,18.24
2018-07-01T06:54:23.877Z,18.32
2018-07-01T06:56:52.746Z,18.41
2018-07-01T06:59:21.681Z,18.36
2018-07-01T07:01:50.967Z,18.54
2018-07-01T07:04:19.942Z,18.61
2018-07-01T07:06:48.851Z,18.77
2018-07-01T07:09:17.589Z,18.92
2018-07-01T07:11:46.821Z,18.95
2018-07-01T07:14:15.807Z,19.10
2018-07-01T07:16:44.900Z,19.19
2018-07-01T07:19:13.813Z,19.36
2018-07-01T07:21:42.739Z,19.37
2018-07-01T07:24:11.546Z,19.47
2018-07-01T07:26:40.413Z,19.47
2018-07-01T07:29:09.274Z,19.55
2018-07-01T07:31:38.318Z,19.60
2018-07-01T07:34:07.157Z,19.66
2018-07-01T07:36:35.958Z,19.69
2018-07-01T07:39:07.245Z,19.89
2018-07-01T07:41:36.531Z,20.06
2018-07-01T07:44:05.602Z,20.05
2018-07-01T07:46:34.722Z,20.22
2018-07-01T07:49:03.591Z,20.36
2018-07-01T07:51:32.410Z,20.28
2018-07-01T07:54:01.402Z,20.48
2018-07-01T07:56:30.745Z,20.39
2018-07-01T07:58:59.932Z,20.47
2018-07-01T08:01:28.757Z,20.42
2018-07-01T08:03:57.627Z,20.48
2018-07-01T08:06:27.060Z,20.54
2018-07-01T08:08:55.982Z,20.56
2018-07-01T08:11:25.015Z,20.76
2018-07-01T08:13:54.193Z,20.92
2018-07-01T08:16:23.277Z,20.94
2018-07-01T08:18:52.273Z,20.99
2018-07-01T08:21:21.351Z,20.91
2018-07-01T08:23:50.550Z,21.09
2018-07-01T08:26:19.601Z,21.02
2018-07-01T08:28:48.369Z,20.87
2018-07-01T08:31:17.336Z,21.12
2018-07-01T08:33:46.770Z,21.20
2018-07-01T08:36:15.785Z,21.25
2018-07-01T08:38:44.549Z,21.19
2018-07-01T08:41:13.851Z,20.88
2018-07-01T08:43:42.733Z,21.07
2018-07-01T08:46:11.705Z,21.28
2018-07-01T08:48:40.802Z,21.34
2018-07-01T08:51:09.795Z,21.24
2018-07-01T08:53:38.735Z,21.44
2018-07-01T08:56:07.575Z,21.67
2018-07-01T08:58:36.987Z,21.71
2018-07-01T09:01:06.130Z,21.81
2018-07-01T09:03:35.355Z,21.75
2018-07-01T09:06:04.666Z,21.84
2018-07-01T09:08:33.892Z,22.01
2018-07-01T09:11:04.418Z,22.05
2018-07-01T09:13:33.315Z,21.91
2018-07-01T09:16:02.465Z,21.91
2018-07-01T09:18:32.031Z,22.08
2018-07-01T09:21:00.986Z,22.12
2018-07-01T09:23:30.013Z,22.03
2018-07-01T09:25:59.221Z,22.00
2018-07-01T09:28:28.239Z,22.01
2018-07-01T09:30:57.242Z,22.05
2018-07-01T09:33:26.283Z,22.12
2018-07-01T09:35:55.310Z,22.43
2018-07-01T09:38:24.213Z,22.55
2018-07-01T09:40:53.081Z,22.59
2018-07-01T09:43:22.244Z,22.31
2018-07-01T09:45:51.259Z,22.30
2018-07-01T09:48:20.468Z,22.36
2018-07-01T09:50:49.559Z,22.51
2018-07-01T09:53:18.516Z,22.73
2018-07-01T09:55:47.843Z,22.76
2018-07-01T09:58:16.648Z,22.72
2018-07-01T10:00:45.832Z,22.82
2018-07-01T10:03:15.271Z,22.79
2018-07-01T10:05:44.173Z,22.89
2018-07-01T10:08:13.158Z,22.87
2018-07-01T10:10:42.088Z,22.97
2018-07-01T10:13:11.049Z,23.08
2018-07-01T10:15:39.886Z,22.89
2018-07-01T10:18:08.818Z,22.81
2018-07-01T10:20:37.527Z,22.77
2018-07-01T10:23:06.238Z,23.06
2018-07-01T10:25:35.018Z,23.15
2018-07-01T10:28:03.883Z,23.12
2018-07-01T10:30:32.689Z,23.41
2018-07-01T10:33:01.864Z,23.42
2018-07-01T10:35:30.653Z,23.48
2018-07-01T10:37:59.809Z,23.48
2018-07-01T10:40:28.733Z,23.32
2018-07-01T10:42:57.496Z,23.39
2018-07-01T10:45:26.592Z,23.25
2018-07-01T10:47:56.172Z,23.05
2018-07-01T10:50:24.976Z,23.19
2018-07-01T10:52:53.775Z,23.36
2018-07-01T10:55:22.936Z,23.47
2018-07-01T10:57:51.859Z,23.14
2018-07-01T11:00:20.698Z,23.36
2018-07-01T11:02:49.815Z,23.37
2018-07-01T11:05:18.747Z,23.49
2018-07-01T11:07:47.843Z,23.64
2018-07-01T11:10:16.935Z,23.70
2018-07-01T11:12:46.286Z,23.83
2018-07-01T11:15:15.237Z,23.87
2018-07-01T11:17:44.162Z,23.96
2018-07-01T11:20:13.146Z,23.94
2018-07-01T11:22:41.980Z,23.85
2018-07-01T11:25:10.941Z,23.84
2018-07-01T11:27:40.035Z,23.97
2018-07-01T11:30:09.209Z,23.95
2018-07-01T11:32:38.548Z,23.89
2018-07-01T11:35:07.445Z,23.90
2018-07-01T11:37:36.318Z,23.84
2018-07-01T11:40:05.827Z,23.78
2018-07-01T11:42:34.557Z,23.83
2018-07-01T11:45:03.417Z,24.13
2018-07-01T11:47:32.292Z,24.12
2018-07-01T11:50:01.156Z,24.32
2018-07-01T11:52:30.179Z,24.50
2018-07-01T11:54:59.182Z,24.22
2018-07-01T11:57:27.948Z,25.02
2018-07-01T11:59:56.779Z,25.67
2018-07-01T12:02:25.551Z,26.30
2018-07-01T12:05:16.206Z,26.99
2018-07-01T12:07:23.357Z,27.62
2018-07-01T12:09:52.523Z,28.40
2018-07-01T12:12:21.536Z,28.87
2018-07-01T12:14:50.519Z,29.70
2018-07-01T12:17:19.697Z,30.17
2018-07-01T12:19:48.711Z,30.65
2018-07-01T12:22:17.611Z,30.79
2018-07-01T12:24:47.181Z,31.65
2018-07-01T12:27:16.035Z,32.26
2018-07-01T12:29:44.998Z,32.78
2018-07-01T12:32:14.098Z,33.77
2018-07-01T12:34:43.216Z,34.32
2018-07-01T12:37:12.128Z,33.92
2018-07-01T12:39:41.040Z,34.25
2018-07-01T12:42:10.050Z,35.03
2018-07-01T12:44:38.671Z,35.63
2018-07-01T12:47:07.806Z,35.54
2018-07-01T12:49:36.902Z,35.08
2018-07-01T12:52:06.303Z,36.16
2018-07-01T12:54:35.098Z,36.72
2018-07-01T12:57:03.891Z,37.00
2018-07-01T12:59:32.754Z,37.22
2018-07-01T13:02:02.118Z,37.74
2018-07-01T13:04:30.846Z,37.11
2018-07-01T13:06:59.794Z,37.18
2018-07-01T13:09:29.449Z,37.51
2018-07-01T13:11:58.347Z,37.38
2018-07-01T13:14:27.379Z,37.86
2018-07-01T13:16:56.479Z,38.28
2018-07-01T13:19:25.900Z,38.77
2018-07-01T13:21:54.958Z,39.23
2018-07-01T13:24:23.829Z,38.52
2018-07-01T13:26:52.986Z,38.93
2018-07-01T13:29:21.844Z,39.42
2018-07-01T13:31:50.774Z,39.18
2018-07-01T13:34:19.906Z,39.53
2018-07-01T13:36:49.222Z,39.46
2018-07-01T13:39:18.118Z,38.78
2018-07-01T13:41:46.934Z,38.28
2018-07-01T13:44:16.288Z,37.72
2018-07-01T13:46:45.460Z,37.61
2018-07-01T13:49:16.011Z,37.00
2018-07-01T13:51:44.870Z,37.64
2018-07-01T13:54:13.917Z,37.94
2018-07-01T13:56:43.150Z,37.07
2018-07-01T13:59:12.453Z,36.38
2018-07-01T14:01:41.430Z,35.41
2018-07-01T14:04:10.242Z,33.92
2018-07-01T14:06:39.268Z,32.78
2018-07-01T14:09:10.268Z,31.27
2018-07-01T14:11:39.947Z,30.28
2018-07-01T14:14:09.461Z,29.56
2018-07-01T14:16:38.674Z,29.12
2018-07-01T14:19:07.664Z,28.37
2018-07-01T14:21:36.567Z,28.20
2018-07-01T14:24:05.821Z,28.26
2018-07-01T14:26:35.115Z,27.94
2018-07-01T14:29:04.443Z,27.86
2018-07-01T14:31:33.440Z,27.60
2018-07-01T14:34:02.150Z,27.43
2018-07-01T14:36:31.128Z,27.10
2018-07-01T14:39:00.157Z,27.09
2018-07-01T14:41:29.251Z,26.76
2018-07-01T14:43:58.125Z,26.91
2018-07-01T14:46:27.134Z,27.53
2018-07-01T14:48:55.922Z,28.11
2018-07-01T14:51:24.874Z,28.39
2018-07-01T14:53:53.767Z,28.39
2018-07-01T14:56:22.859Z,28.46
2018-07-01T14:58:52.280Z,28.52
2018-07-01T15:01:21.465Z,28.05
2018-07-01T15:03:50.570Z,27.67
2018-07-01T15:06:19.497Z,27.50
2018-07-01T15:08:48.422Z,27.38
2018-07-01T15:11:17.351Z,27.07
2018-07-01T15:13:46.309Z,26.93
2018-07-01T15:16:15.069Z,26.75
2018-07-01T15:18:43.904Z,26.63
2018-07-01T15:21:12.780Z,26.56
2018-07-01T15:23:41.703Z,26.52
2018-07-01T15:26:10.709Z,26.20
2018-07-01T15:28:39.853Z,26.06
2018-07-01T15:31:09.334Z,26.04
2018-07-01T15:33:38.471Z,26.01
2018-07-01T15:36:08.101Z,25.97
2018-07-01T15:38:37.315Z,26.15
2018-07-01T15:41:06.218Z,26.26
2018-07-01T15:43:35.219Z,26.57
2018-07-01T15:46:03.960Z,26.80
2018-07-01T15:48:33.117Z,26.85
2018-07-01T15:51:02.077Z,27.06
2018-07-01T15:53:31.041Z,26.93
2018-07-01T15:55:59.875Z,26.84
2018-07-01T15:58:28.612Z,26.86
2018-07-01T16:00:57.860Z,27.09
2018-07-01T16:03:26.538Z,27.32
2018-07-01T16:05:56.124Z,27.24
2018-07-01T16:08:25.003Z,27.32
2018-07-01T16:10:53.873Z,28.01
2018-07-01T16:13:23.460Z,28.90
2018-07-01T16:15:52.592Z,29.25
2018-07-01T16:18:22.115Z,29.39
2018-07-01T16:20:50.888Z,29.21
2018-07-01T16:23:20.089Z,29.38
2018-07-01T16:25:54.182Z,29.22
2018-07-01T16:28:28.365Z,29.31
2018-07-01T16:30:57.629Z,29.19
2018-07-01T16:33:26.960Z,28.78
2018-07-01T16:35:56.105Z,28.58
2018-07-01T16:38:25.344Z,28.30
2018-07-01T16:40:54.147Z,27.88
2018-07-01T16:43:23.052Z,27.56
2018-07-01T16:45:52.830Z,27.10
2018-07-01T16:48:21.900Z,26.97
2018-07-01T16:50:50.767Z,26.88
2018-07-01T16:53:19.657Z,26.98
2018-07-01T16:55:48.757Z,27.22
2018-07-01T16:58:17.576Z,27.28
2018-07-01T17:00:46.422Z,27.32
2018-07-01T17:03:15.251Z,27.05
2018-07-01T17:05:44.177Z,27.04
2018-07-01T17:08:13.193Z,27.54
2018-07-01T17:10:42.074Z,28.11
2018-07-01T17:13:11.058Z,28.46
2018-07-01T17:15:40.769Z,28.09
2018-07-01T17:18:10.053Z,28.02
2018-07-01T17:20:38.926Z,28.12
2018-07-01T17:23:07.854Z,28.50
2018-07-01T17:25:42.293Z,28.80
2018-07-01T17:28:11.091Z,28.80
2018-07-01T17:30:40.545Z,28.50
2018-07-01T17:33:14.557Z,28.81
2018-07-01T17:35:43.654Z,28.63
2018-07-01T17:38:12.569Z,27.64
2018-07-01T17:40:41.554Z,27.34
2018-07-01T17:43:10.530Z,27.01
2018-07-01T17:45:39.359Z,26.72
2018-07-01T17:48:08.346Z,26.71
2018-07-01T17:50:37.374Z,26.97
2018-07-01T17:53:06.270Z,27.67
2018-07-01T17:55:35.672Z,29.14
2018-07-01T17:58:04.791Z,30.62
2018-07-01T18:00:33.766Z,31.26
2018-07-01T18:03:03.105Z,32.16
2018-07-01T18:05:32.356Z,33.38
2018-07-01T18:08:03.614Z,33.91
2018-07-01T18:10:32.680Z,34.55
2018-07-01T18:13:02.541Z,34.79
2018-07-01T18:15:31.546Z,35.20
2018-07-01T18:18:00.672Z,35.23
2018-07-01T18:20:29.741Z,35.31
2018-07-01T18:23:27.405Z,34.76
2018-07-01T18:25:28.035Z,33.74
2018-07-01T18:28:07.486Z,32.98
2018-07-01T18:30:26.502Z,31.45
2018-07-01T18:32:55.305Z,30.07
2018-07-01T18:35:24.192Z,29.40
2018-07-01T18:37:53.654Z,28.49
2018-07-01T18:40:22.483Z,27.67
2018-07-01T18:42:51.394Z,26.66
2018-07-01T18:45:20.275Z,26.15
2018-07-01T18:47:49.060Z,25.79
2018-07-01T18:50:17.774Z,25.44
2018-07-01T18:52:46.712Z,25.07
2018-07-01T18:55:18.621Z,24.80
2018-07-01T18:57:47.643Z,24.46
2018-07-01T19:00:17.518Z,24.21
2018-07-01T19:02:46.422Z,24.04
2018-07-01T19:05:15.536Z,23.76
2018-07-01T19:07:44.388Z,23.66
2018-07-01T19:10:13.243Z,23.48
2018-07-01T19:12:42.251Z,23.32
2018-07-01T19:15:10.981Z,23.20
2018-07-01T19:17:39.690Z,23.06
2018-07-01T19:20:08.597Z,22.94
2018-07-01T19:22:37.560Z,22.78
2018-07-01T19:25:06.311Z,22.67
2018-07-01T19:27:35.229Z,22.55
2018-07-01T19:30:11.244Z,22.41
2018-07-01T19:32:40.324Z,22.27
2018-07-01T19:35:13.925Z,22.17
2018-07-01T19:37:43.327Z,22.01
2018-07-01T19:40:12.261Z,21.96
2018-07-01T19:42:41.269Z,21.85
2018-07-01T19:45:10.324Z,21.70
2018-07-01T19:47:39.109Z,21.62
2018-07-01T19:50:08.066Z,21.54
2018-07-01T19:52:37.026Z,21.45
2018-07-01T19:55:06.113Z,21.39
2018-07-01T19:57:34.954Z,21.33
2018-07-01T20:00:04.136Z,21.32
2018-07-01T20:02:32.809Z,21.24
2018-07-01T20:05:01.627Z,21.18
2018-07-01T20:07:30.387Z,21.10
2018-07-01T20:09:59.241Z,20.96
2018-07-01T20:12:28.274Z,20.88
2018-07-01T20:14:57.148Z,20.83
2018-07-01T20:17:26.079Z,20.76
2018-07-01T20:19:58.454Z,20.68
2018-07-01T20:22:27.162Z,20.63
2018-07-01T20:24:56.437Z,20.58
2018-07-01T20:27:25.323Z,20.48
2018-07-01T20:29:54.142Z,20.42
2018-07-01T20:32:22.901Z,20.40
2018-07-01T20:34:51.742Z,20.27
2018-07-01T20:37:21.805Z,20.23
2018-07-01T20:39:50.823Z,20.18
2018-07-01T20:42:19.789Z,20.09
2018-07-01T20:44:48.901Z,20.02
2018-07-01T20:47:17.720Z,20.02
2018-07-01T20:49:46.536Z,19.87
2018-07-01T20:52:15.628Z,19.74
2018-07-01T20:54:44.474Z,19.79
2018-07-01T20:57:13.390Z,19.72
2018-07-01T20:59:42.069Z,19.71
2018-07-01T21:02:11.064Z,19.65
2018-07-01T21:04:39.939Z,19.71
2018-07-01T21:07:08.960Z,19.59
2018-07-01T21:09:38.034Z,19.48
2018-07-01T21:12:06.998Z,19.35
2018-07-01T21:14:35.871Z,19.30
2018-07-01T21:17:04.903Z,19.22
2018-07-01T21:19:33.734Z,19.20
2018-07-01T21:22:02.591Z,19.20
2018-07-01T21:24:31.571Z,19.12
2018-07-01T21:27:00.588Z,19.15
2018-07-01T21:29:29.546Z,19.13
2018-07-01T21:31:58.584Z,19.05
2018-07-01T21:34:27.557Z,18.96
2018-07-01T21:36:56.571Z,18.96
2018-07-01T21:39:25.526Z,18.95
2018-07-01T21:41:54.413Z,18.88
2018-07-01T21:44:23.453Z,18.83
2018-07-01T21:46:52.431Z,18.82
2018-07-01T21:49:21.381Z,18.71
2018-07-01T21:51:50.455Z,18.64
2018-07-01T21:54:19.474Z,18.64
2018-07-01T21:56:48.362Z,18.62
2018-07-01T21:59:17.461Z,18.52
2018-07-01T22:01:46.491Z,18.54
2018-07-01T22:04:15.784Z,18.46
2018-07-01T22:06:49.834Z,18.37
2018-07-01T22:09:19.158Z,18.35
2018-07-01T22:11:57.803Z,18.26
2018-07-01T22:14:42.052Z,18.24
2018-07-01T22:17:12.485Z,18.21
2018-07-01T22:19:41.472Z,18.08
2018-07-01T22:22:10.414Z,18.05
2018-07-01T22:24:40.051Z,18.02
2018-07-01T22:27:08.907Z,17.96
2018-07-01T22:29:37.953Z,17.94
2018-07-01T22:32:06.890Z,17.93
2018-07-01T22:34:36.123Z,17.88
2018-07-01T22:37:05.306Z,17.82
2018-07-01T22:39:34.221Z,17.75
2018-07-01T22:42:03.518Z,17.72
2018-07-01T22:44:32.444Z,17.69
2018-07-01T22:47:01.532Z,17.60
2018-07-01T22:49:30.532Z,17.61
2018-07-01T22:51:59.616Z,17.50
2018-07-01T22:54:28.658Z,17.45
2018-07-01T22:56:57.524Z,17.43
2018-07-01T22:59:26.828Z,17.35
2018-07-01T23:03:08.482Z,17.34
2018-07-01T23:05:37.660Z,17.26
2018-07-01T23:08:06.621Z,17.23
2018-07-01T23:10:35.633Z,17.21
2018-07-01T23:13:04.489Z,17.23
2018-07-01T23:15:33.402Z,17.15
2018-07-01T23:18:02.241Z,17.14
2018-07-01T23:20:30.993Z,17.13
2018-07-01T23:22:59.941Z,17.08
2018-07-01T23:25:28.750Z,16.99
2018-07-01T23:27:57.564Z,16.99
2018-07-01T23:30:26.409Z,17.01
2018-07-01T23:32:55.366Z,16.99
2018-07-01T23:35:24.343Z,16.95
2018-07-01T23:37:53.405Z,16.91
2018-07-01T23:40:22.149Z,16.85
2018-07-01T23:42:50.981Z,16.86
2018-07-01T23:45:20.047Z,16.82
2018-07-01T23:47:49.043Z,16.86
2018-07-01T23:50:18.029Z,16.81
2018-07-01T23:52:47.153Z,16.82
2018-07-01T23:55:15.917Z,16.73
2018-07-01T23:57:44.866Z,16.72
